La Salle, Michigan
Current Conditions -  °F | °C
As of 9:32 AM on Friday 31 Oct 2014 (Local Time) from KTTF Reporting Station
Light Rain Light Rain  
Wind Chill: 43°   Ceiling: 3000
Heat Index: 43°   Visibility: 5mi
Dew Point: 39°   Wind: 0mph
Humidity: 87%   Direction: NA
Pressure: 29.89"   Gusts: NA
Location:  41.87°N, 83.45°W
Report Text: KTTF 311332Z AUTO 00000KT 5SM -RA OVC030 06/04 A2989 RMK AO2
Loading
Personal Weather Stations






























Interactive Weather Map
Tropical Storm Tracking
New forecast layout! Learn more

10-Day Weather Forecast

Advertisements
Track Severe Weather on mobile